Latest Weather Observations for Portland Airport

IDV60801

Issued at 8:22 pm EST Wednesday 17 July 2024 (issued every 10 minutes, with the page automatically refreshed every 10 minutes)

About weather observations | Map of weather stations | Latest weather observations for VIC | Other Formats
Station Details ID: 090171 Name: PORTLAND AIRPORT Lat: -38.31 Lon: 141.47 Height: 80.9 m
Data from the previous 72 hours. | See also: Recent months at Portland Airport
Date/Time
EST
Temp
°C
App
Temp
°C
Dew
Point
°C
Rel
Hum
%
Delta-T
°C
Wind Press
QNH
hPa
Press
MSL
hPa
Rain since
9am
mm
Dir  Spd
km/h
Gust
km/h
Spd
kts
Gust
kts
17/08:00pm 10.0 6.0 3.1 62 3.0 S 13 22 7 12 1018.0 1018.1 0.4
17/07:30pm 10.3 6.0 3.1 61 3.1 S 15 24 8 13 1017.7 1017.8 0.4
17/07:00pm 10.5 6.4 4.4 66 2.7 S 15 26 8 14 1017.5 1017.6 0.4
17/06:30pm 10.5 7.2 4.4 66 2.7 S 11 20 6 11 1017.3 1017.4 0.4
17/06:00pm 10.5 6.3 4.0 64 2.9 S 15 22 8 12 1017.1 1017.2 0.4
17/05:30pm 10.7 6.6 4.2 64 2.9 S 15 22 8 12 1016.8 1016.9 0.4
17/05:00pm 11.0 6.6 4.9 66 2.8 S 17 24 9 13 1016.4 1016.5 0.4
17/04:30pm 11.3 7.2 6.0 70 2.5 S 17 28 9 15 1016.2 1016.3 0.4
17/04:00pm 11.6 7.5 6.3 70 2.5 SSW 17 28 9 15 1015.9 1016.0 0.4
17/03:30pm 11.9 8.6 6.2 68 2.7 S 13 20 7 11 1015.8 1015.9 0.4
17/03:00pm 11.8 7.9 5.4 65 3.0 S 15 24 8 13 1015.5 1015.6 0.4
17/02:30pm 11.8 8.1 6.3 69 2.6 S 15 26 8 14 1015.5 1015.6 0.4
17/02:00pm 11.8 8.2 6.7 71 2.4 S 15 24 8 13 1015.5 1015.6 0.4
17/01:30pm 11.5 8.3 7.0 74 2.2 S 13 24 7 13 1015.7 1015.8 0.4
17/01:00pm 11.9 8.7 6.8 71 2.4 S 13 22 7 12 1015.8 1015.9 0.4
17/12:30pm 11.9 8.4 8.6 80 1.6 S 17 24 9 13 1016.0 1016.1 0.4
17/12:00pm 11.0 8.0 9.3 89 0.9 SSE 15 24 8 13 1016.4 1016.5 0.4
17/11:30am 11.3 8.1 10.0 92 0.7 S 17 26 9 14 1016.5 1016.6 0.4
17/11:23am 10.8 7.5 9.6 92 0.6 SSE 17 26 9 14 1016.6 1016.7 0.4
17/11:13am 10.8 7.5 9.7 93 0.6 S 17 28 9 15 1016.6 1016.7 0.4
17/11:00am 11.3 8.2 10.4 94 0.5 SSE 17 26 9 14 1016.6 1016.7 0.4
17/10:30am 11.1 7.9 11.1 100 0.0 SSE 19 33 10 18 1016.4 1016.5 0.4
17/10:00am 11.0 7.5 11.0 100 0.0 SSE 20 33 11 18 1016.1 1016.2 0.4
17/09:30am 10.7 6.8 10.7 100 0.0 SSE 22 32 12 17 1015.7 1015.8 0.4
17/09:24am 10.7 6.8 10.7 100 0.0 SSE 22 32 12 17 1015.7 1015.8 0.4
17/09:08am 10.7 7.7 10.7 100 0.0 SSE 17 24 9 13 1015.5 1015.6 0.0
17/09:02am 10.7 7.3 10.7 100 0.0 SSE 19 26 10 14 1015.5 1015.6 0.0
17/09:00am 10.6 7.2 10.6 100 0.0 SSE 19 28 10 15 1015.4 1015.5 12.2
17/08:30am 10.6 7.2 10.6 100 0.0 SE 19 28 10 15 1015.2 1015.3 12.2
17/08:19am 10.9 8.4 10.9 100 0.0 SSE 15 24 8 13 1015.1 1015.2 12.2
17/08:00am 10.5 7.5 10.5 100 0.0 SSE 17 24 9 13 1014.9 1015.0 12.2
17/07:31am 10.7 7.7 10.7 100 0.0 SSE 17 28 9 15 1014.6 1014.7 12.0
17/07:30am 10.7 7.7 10.7 100 0.0 SSE 17 28 9 15 1014.6 1014.7 12.0
17/07:29am 10.6 7.6 10.6 100 0.0 SSE 17 28 9 15 1014.6 1014.7 12.0
17/07:14am 11.0 8.9 11.0 100 0.0 SSE 13 26 7 14 1014.5 1014.6 12.0
17/07:12am 11.0 8.9 11.0 100 0.0 SSE 13 20 7 11 1014.5 1014.6 12.0
17/07:00am 10.9 8.0 10.9 100 0.0 SSE 17 26 9 14 1014.3 1014.4 11.6
17/06:50am 11.0 8.1 11.0 100 0.0 SSE 17 22 9 12 1014.2 1014.3 11.6
17/06:49am 11.0 8.1 11.0 100 0.0 SSE 17 22 9 12 1014.2 1014.3 11.6
17/06:40am 10.9 7.6 10.9 100 0.0 SE 19 28 10 15 1014.0 1014.1 11.6
17/06:33am 10.9 7.6 10.9 100 0.0 SE 19 28 10 15 1014.0 1014.1 11.4
17/06:30am 10.9 7.6 10.9 100 0.0 SE 19 28 10 15 1013.9 1014.0 11.4
17/06:00am 11.1 7.9 11.1 100 0.0 SSE 19 28 10 15 1013.5 1013.6 11.0
17/05:36am 11.1 7.9 11.1 100 0.0 SE 19 28 10 15 1013.4 1013.5 10.6
17/05:30am 11.0 7.5 11.0 100 0.0 SE 20 28 11 15 1013.4 1013.5 10.6
17/05:06am 11.1 8.6 11.1 100 0.0 SE 15 28 8 15 1013.3 1013.4 10.2
17/05:00am 10.9 8.4 10.9 100 0.0 SE 15 22 8 12 1013.4 1013.5 10.0
17/04:47am 11.3 8.1 11.1 99 0.1 SSE 19 28 10 15 1013.4 1013.5 9.0
17/04:43am 11.3 8.1 11.1 99 0.1 SSE 19 28 10 15 1013.3 1013.4 8.8
17/04:42am 11.3 8.1 11.1 99 0.1 SSE 19 28 10 15 1013.4 1013.5 8.8
17/04:41am 11.3 8.4 11.1 99 0.1 SSE 17 28 9 15 1013.4 1013.5 8.6
17/04:30am 11.2 9.1 11.0 99 0.1 SSE 13 24 7 13 1013.4 1013.5 8.2
17/04:20am 11.3 8.8 11.1 99 0.1 SE 15 22 8 12 1013.5 1013.6 7.4
17/04:00am 11.3 9.5 11.0 98 0.2 SE 11 15 6 8 1013.4 1013.5 6.2
17/03:55am 11.3 9.5 10.8 97 0.3 SE 11 15 6 8 1013.4 1013.5 6.2
17/03:35am 11.5 8.8 10.4 93 0.6 SSE 15 20 8 11 1013.5 1013.6 5.6
17/03:30am 11.7 9.4 10.4 92 0.7 SSE 13 20 7 11 1013.4 1013.5 5.0
17/03:00am 11.5 9.8 9.8 89 0.9 SSE 9 15 5 8 1013.4 1013.5 4.8
17/02:30am 11.4 9.3 9.8 90 0.8 SSE 11 17 6 9 1013.2 1013.3 4.8
17/02:00am 11.7 9.8 10.4 92 0.7 SSE 11 19 6 10 1013.2 1013.3 4.8
17/01:30am 11.6 8.9 10.3 92 0.7 SSE 15 20 8 11 1013.2 1013.3 4.8
17/01:00am 11.6 9.5 11.0 96 0.3 SSE 13 19 7 10 1013.4 1013.5 4.8
17/12:30am 11.6 10.0 11.4 99 0.1 SSE 11 20 6 11 1013.5 1013.6 4.8
17/12:00am 11.7 9.7 11.5 99 0.1 SSE 13 20 7 11 1013.6 1013.7 4.8
 
Date/Time
EST
Temp
°C
App
Temp
°C
Dew
Point
°C
Rel
Hum
%
Delta-T
°C
Wind Press
QNH
hPa
Press
MSL
hPa
Rain since
9am
mm
Dir  Spd
km/h
Gust
km/h
Spd
kts
Gust
kts
16/11:41pm 11.7 9.7 11.5 99 0.1 SSE 13 20 7 11 1013.7 1013.8 4.8
16/11:30pm 11.8 9.8 11.6 99 0.1 SSE 13 20 7 11 1013.7 1013.8 4.8
16/11:02pm 12.1 10.3 12.1 100 0.0 SSE 13 20 7 11 1013.8 1013.9 4.8
16/11:00pm 12.1 10.3 12.1 100 0.0 S 13 20 7 11 1013.8 1013.9 4.6
16/10:55pm 12.0 10.2 12.0 100 0.0 S 13 24 7 13 1013.7 1013.8 4.6
16/10:30pm 11.8 9.5 11.8 100 0.0 SSE 15 24 8 13 1013.6 1013.7 4.6
16/10:10pm 11.8 9.9 11.8 100 0.0 S 13 22 7 12 1013.6 1013.7 4.6
16/10:00pm 11.9 9.6 11.9 100 0.0 SSW 15 24 8 13 1013.5 1013.6 4.6
16/09:49pm 12.0 10.2 12.0 100 0.0 S 13 19 7 10 1013.6 1013.7 4.0
16/09:43pm 12.0 9.8 12.0 100 0.0 SSW 15 24 8 13 1013.5 1013.6 3.2
16/09:31pm 11.6 9.6 11.6 100 0.0 SSW 13 20 7 11 1013.6 1013.7 3.2
16/09:30pm 11.6 9.6 11.6 100 0.0 SSW 13 22 7 12 1013.6 1013.7 3.2
16/09:15pm 11.8 9.1 11.8 100 0.0 SSW 17 28 9 15 1013.6 1013.7 3.2
16/09:08pm 11.9 9.3 11.9 100 0.0 SSW 17 24 9 13 1013.5 1013.6 3.2
16/09:00pm 11.9 9.3 11.9 100 0.0 SSW 17 32 9 17 1013.5 1013.6 3.2
16/08:30pm 11.8 9.1 11.8 100 0.0 SSW 17 24 9 13 1013.4 1013.5 3.0
16/08:21pm 11.8 9.1 11.8 100 0.0 SSW 17 26 9 14 1013.4 1013.5 3.0
16/08:01pm 11.8 8.8 11.8 100 0.0 SSW 19 28 10 15 1013.1 1013.2 2.6
16/08:00pm 11.8 9.1 11.8 100 0.0 SSW 17 28 9 15 1013.2 1013.3 2.6
16/07:30pm 11.8 8.7 11.6 99 0.1 SSW 19 30 10 16 1013.0 1013.1 1.8
16/07:12pm 11.9 8.8 11.7 99 0.1 SSW 19 30 10 16 1012.9 1013.0 1.8
16/07:10pm 11.8 8.7 11.6 99 0.1 SSW 19 28 10 15 1012.8 1012.9 1.8
16/07:00pm 11.7 8.9 11.5 99 0.1 SSW 17 32 9 17 1012.9 1013.0 1.8
16/06:30pm 11.7 9.0 11.7 100 0.0 SSW 17 28 9 15 1012.7 1012.8 1.8
16/06:00pm 11.5 8.4 11.5 100 0.0 SSW 19 32 10 17 1012.5 1012.6 1.8
16/05:30pm 11.5 8.7 11.5 100 0.0 SSW 17 28 9 15 1012.2 1012.4 1.8
16/05:00pm 11.5 8.4 11.5 100 0.0 SSW 19 32 10 17 1012.0 1012.2 1.8
16/04:30pm 11.5 7.7 11.3 99 0.1 SSW 22 37 12 20 1011.8 1012.0 1.6
16/04:00pm 11.4 7.6 11.2 99 0.1 SSW 22 32 12 17 1011.7 1011.9 1.6
16/03:30pm 11.3 7.5 11.1 99 0.1 SSW 22 39 12 21 1011.6 1011.8 1.6
16/03:00pm 11.8 8.1 11.6 99 0.1 SSW 22 33 12 18 1011.6 1011.8 1.2
16/02:30pm 11.5 7.4 11.3 99 0.1 SSW 24 35 13 19 1011.6 1011.8 1.2
16/02:00pm 11.0 7.1 10.8 99 0.1 SSW 22 39 12 21 1011.7 1011.9 1.2
16/01:30pm 11.3 7.5 11.1 99 0.1 SSW 22 35 12 19 1011.8 1012.0 1.2
16/01:00pm 11.2 7.3 10.9 98 0.2 SSW 22 39 12 21 1012.0 1012.2 1.0
16/12:30pm 11.1 6.7 10.5 96 0.3 SSW 24 37 13 20 1012.4 1012.5 1.0
16/12:18pm 11.4 7.1 10.9 97 0.3 SSW 24 39 13 21 1012.4 1012.5 0.8
16/12:03pm 11.2 7.2 10.4 95 0.4 S 22 37 12 20 1012.7 1012.8 0.8
16/12:00pm 11.4 7.4 10.6 95 0.4 S 22 35 12 19 1012.8 1012.9 0.8
16/11:30am 11.4 8.0 11.1 98 0.2 SSW 20 35 11 19 1012.8 1012.9 0.8
16/11:00am 11.2 6.6 11.0 99 0.1 SSW 26 41 14 22 1012.9 1013.0 0.8
16/10:30am 10.9 6.6 10.7 99 0.1 SSW 24 39 13 21 1012.6 1012.7 0.8
16/10:03am 10.5 6.4 10.0 97 0.3 S 22 33 12 18 1012.5 1012.6 0.6
16/10:00am 10.7 6.3 10.4 98 0.2 S 24 41 13 22 1012.4 1012.5 0.6
16/09:45am 10.6 6.4 9.8 95 0.4 SSW 22 37 12 20 1012.2 1012.4 0.6
16/09:30am 11.0 6.8 9.9 93 0.6 SSW 22 44 12 24 1012.0 1012.2 0.0
16/09:00am 10.8 6.6 9.9 94 0.5 SSW 22 43 12 23 1011.7 1011.9 2.8
16/08:30am 10.7 6.1 9.8 94 0.5 SSW 24 48 13 26 1011.4 1011.6 2.8
16/08:09am 10.4 5.8 9.8 96 0.3 SSW 24 37 13 20 1011.2 1011.4 2.8
16/08:00am 10.6 5.7 10.1 97 0.3 SSW 26 43 14 23 1011.1 1011.3 2.8
16/07:30am 10.1 5.8 9.5 96 0.3 SSW 22 43 12 23 1011.0 1011.2 2.6
16/07:00am 10.4 5.1 9.8 96 0.3 SSW 28 46 15 25 1010.9 1011.0 2.4
16/06:57am 10.3 5.0 9.7 96 0.3 SSW 28 46 15 25 1010.9 1011.0 2.4
16/06:52am 10.3 4.6 9.7 96 0.3 SSW 30 44 16 24 1010.7 1010.8 2.4
16/06:49am 10.3 4.6 9.8 97 0.3 SSW 30 44 16 24 1010.7 1010.8 2.4
16/06:30am 10.0 5.0 9.4 96 0.3 SSW 26 39 14 21 1010.7 1010.8 2.4
16/06:00am 10.0 4.5 9.2 95 0.4 SSW 28 48 15 26 1010.5 1010.6 2.2
16/05:49am 10.1 4.7 9.5 96 0.3 SSW 28 48 15 26 1010.5 1010.6 2.2
16/05:41am 10.0 4.9 9.2 95 0.4 SSW 26 43 14 23 1010.4 1010.5 2.0
16/05:38am 10.0 5.0 9.4 96 0.3 SSW 26 48 14 26 1010.4 1010.5 2.0
16/05:30am 9.8 3.5 8.9 94 0.4 SSW 32 52 17 28 1010.5 1010.6 2.0
16/05:27am 10.0 4.1 9.2 95 0.4 SSW 30 52 16 28 1010.4 1010.5 2.0
16/05:26am 9.9 4.4 9.1 95 0.4 SSW 28 52 15 28 1010.3 1010.4 1.8
16/05:22am 10.0 5.3 9.2 95 0.4 SSW 24 52 13 28 1010.4 1010.5 1.8
16/05:00am 9.9 4.2 8.5 91 0.7 SSW 28 52 15 28 1010.3 1010.4 1.6
16/04:55am 9.9 4.2 8.2 89 0.8 SSW 28 52 15 28 1010.3 1010.4 1.6
16/04:35am 10.0 4.3 8.3 89 0.8 SSW 28 48 15 26 1010.3 1010.4 1.4
16/04:30am 10.3 5.0 8.6 89 0.8 SSW 26 41 14 22 1010.2 1010.3 1.2
16/04:07am 10.1 4.3 8.0 87 1.0 SSW 28 50 15 27 1010.3 1010.4 1.2
16/04:00am 10.1 4.3 8.0 87 1.0 SSW 28 44 15 24 1010.2 1010.3 1.2
16/03:38am 10.3 4.4 7.7 84 1.3 SSW 28 46 15 25 1010.3 1010.4 1.0
16/03:30am 10.1 3.5 7.9 86 1.1 SSW 32 43 17 23 1010.3 1010.4 1.0
16/03:18am 10.3 4.5 7.9 85 1.2 SSW 28 48 15 26 1010.4 1010.5 1.0
16/03:16am 10.5 5.1 8.1 85 1.2 SSW 26 43 14 23 1010.4 1010.5 1.0
16/03:04am 9.7 3.8 7.5 86 1.1 SSW 28 44 15 24 1010.5 1010.6 1.0
16/03:00am 9.9 3.6 7.3 84 1.2 SSW 30 44 16 24 1010.6 1010.7 1.0
16/02:31am 10.0 4.2 7.8 86 1.1 SSW 28 46 15 25 1010.3 1010.4 1.0
16/02:30am 9.9 3.7 7.7 86 1.1 SSW 30 46 16 25 1010.3 1010.4 1.0
16/02:19am 10.0 4.2 7.8 86 1.1 SSW 28 52 15 28 1010.4 1010.5 1.0
16/02:04am 9.4 2.6 6.7 83 1.3 SSW 32 50 17 27 1010.4 1010.5 1.0
16/02:01am 9.8 3.7 6.7 81 1.5 SSW 28 48 15 26 1010.5 1010.6 1.0
16/02:00am 10.1 4.5 7.0 81 1.5 SSW 26 43 14 23 1010.4 1010.5 0.8
16/01:30am 10.1 4.1 7.2 82 1.4 SSW 28 44 15 24 1010.3 1010.4 0.8
16/01:11am 10.2 4.1 6.7 79 1.6 SSW 28 46 15 25 1010.4 1010.5 0.8
16/01:00am 10.4 4.7 6.7 78 1.7 SSW 26 44 14 24 1010.3 1010.4 0.8
16/12:30am 10.3 3.9 7.0 80 1.6 SSW 30 48 16 26 1010.4 1010.5 0.8
16/12:00am 9.7 3.7 7.0 83 1.3 SSW 28 46 15 25 1010.6 1010.7 0.8
 
Date/Time
EST
Temp
°C
App
Temp
°C
Dew
Point
°C
Rel
Hum
%
Delta-T
°C
Wind Press
QNH
hPa
Press
MSL
hPa
Rain since
9am
mm
Dir  Spd
km/h
Gust
km/h
Spd
kts
Gust
kts
15/11:30pm 9.6 3.5 6.5 81 1.4 SSW 28 48 15 26 1010.8 1010.9 0.8
15/11:28pm 9.9 3.8 6.6 80 1.5 SSW 28 48 15 26 1010.7 1010.8 0.8
15/11:00pm 10.2 4.7 7.4 83 1.3 SSW 26 41 14 22 1010.8 1010.9 0.8
15/10:46pm 9.9 3.9 7.0 82 1.4 SSW 28 48 15 26 1010.9 1011.0 0.8
15/10:30pm 9.7 3.4 7.3 85 1.1 SSW 30 46 16 25 1011.0 1011.2 0.8
15/10:00pm 9.7 3.8 7.5 86 1.1 SSW 28 46 15 25 1011.2 1011.4 0.8
15/09:30pm 10.0 4.1 7.3 83 1.3 SSW 28 48 15 26 1011.1 1011.3 0.6
15/09:03pm 9.8 3.8 7.1 83 1.3 SW 28 48 15 26 1011.1 1011.3 0.6
15/09:00pm 9.8 4.1 6.9 82 1.4 SW 26 43 14 23 1011.2 1011.4 0.6
15/08:30pm 9.1 3.1 7.1 87 0.9 SSW 28 48 15 26 1011.1 1011.3 0.6
15/08:00pm 9.7 3.6 6.4 80 1.5 SSW 28 50 15 27 1011.1 1011.3 0.4
15/07:30pm 9.6 3.1 6.7 82 1.4 SSW 30 50 16 27 1011.1 1011.3 0.4
15/07:00pm 9.7 3.3 6.8 82 1.4 SSW 30 52 16 28 1011.0 1011.2 0.4
15/06:41pm 10.2 4.2 6.9 80 1.6 SSW 28 48 15 26 1011.0 1011.2 0.4
15/06:30pm 9.6 4.2 6.3 80 1.5 SW 24 44 13 24 1011.1 1011.3 0.4
15/06:00pm 10.6 5.2 6.2 74 2.1 SSW 24 43 13 23 1010.8 1010.9 0.2
15/05:30pm 9.4 4.3 5.9 79 1.6 SW 22 33 12 18 1010.7 1010.8 0.2
15/05:00pm 10.4 4.0 5.4 71 2.3 SW 28 43 15 23 1010.8 1010.9 0.2
15/04:30pm 11.2 5.5 4.9 65 2.9 SW 24 37 13 20 1010.8 1010.9 0.2
15/04:00pm 11.1 5.7 4.6 64 2.9 SSW 22 41 12 22 1010.8 1010.9 0.2
15/03:30pm 11.6 5.5 4.8 63 3.1 SSW 26 41 14 22 1010.8 1010.9 0.2
15/03:00pm 11.5 5.6 5.6 67 2.7 SW 26 39 14 21 1010.6 1010.7 0.2
15/02:30pm 11.5 5.9 5.4 66 2.8 SSW 24 39 13 21 1010.7 1010.8 0.0
15/02:00pm 12.0 6.7 5.0 62 3.2 SSW 22 33 12 18 1010.7 1010.8 0.0
15/01:30pm 11.4 5.2 4.2 61 3.2 SSW 26 39 14 21 1011.0 1011.2 0.0
15/01:00pm 11.4 5.8 5.5 67 2.7 SSW 24 37 13 20 1011.2 1011.4 0.0
15/12:30pm 11.9 6.6 5.1 63 3.1 SSW 22 33 12 18 1011.6 1011.8 0.0
15/12:07pm 11.9 7.1 5.5 65 3.0 S 20 32 11 17 1012.0 1012.2 0.0
15/12:00pm 11.0 6.2 4.7 65 2.9 S 19 28 10 15 1012.2 1012.4 0.0
15/11:54am 11.4 6.6 5.5 67 2.7 SSW 20 33 11 18 1012.2 1012.4 0.0
15/11:30am 11.8 7.2 5.7 66 2.8 SSW 19 30 10 16 1012.7 1012.8 0.0
15/11:00am 11.2 6.3 5.1 66 2.8 SSW 20 35 11 19 1012.8 1012.9 0.0
15/10:30am 11.6 7.9 6.3 70 2.5 S 15 26 8 14 1012.7 1012.8 0.0
15/10:00am 10.9 7.5 5.9 71 2.3 S 13 26 7 14 1012.5 1012.6 0.0
15/09:30am 10.7 7.3 6.1 73 2.1 S 13 24 7 13 1012.5 1012.6 0.0
15/09:00am 9.8 6.3 7.2 84 1.2 S 15 24 8 13 1012.1 1012.3 5.6
15/08:30am 8.5 6.6 7.4 93 0.5 SSE 7 13 4 7 1011.9 1012.1 5.6
15/08:00am 8.3 6.0 7.5 95 0.4 SSW 9 13 5 7 1011.8 1012.0 5.6
15/07:30am 8.0 5.6 6.9 93 0.5 SSW 9 13 5 7 1012.0 1012.2 5.4
15/07:04am 8.1 5.6 6.7 91 0.6 S 9 13 5 7 1011.9 1012.1 5.4
15/07:00am 8.2 5.3 6.7 90 0.7 S 11 20 6 11 1011.9 1012.1 5.4
15/06:37am 8.1 3.5 5.7 85 1.1 S 19 32 10 17 1011.9 1012.1 4.4
15/06:30am 9.0 5.4 6.8 86 1.0 SSW 15 28 8 15 1011.8 1012.0 3.8
15/06:00am 9.2 6.1 7.3 88 0.9 SSW 13 20 7 11 1011.6 1011.8 3.8
15/05:30am 8.8 5.7 7.4 91 0.7 SSW 13 20 7 11 1011.6 1011.8 3.8
15/05:06am 8.4 5.6 7.0 91 0.7 S 11 19 6 10 1011.7 1011.9 3.8
15/05:00am 8.2 5.0 6.8 91 0.7 SSW 13 22 7 12 1011.9 1012.1 3.8
15/04:47am 8.7 4.4 6.8 88 0.9 SW 19 32 10 17 1012.0 1012.2 3.4
15/04:30am 9.1 6.0 7.4 89 0.8 SW 13 20 7 11 1011.9 1012.1 2.8
15/04:00am 8.6 5.9 7.4 92 0.6 SW 11 17 6 9 1012.0 1012.2 2.8
15/03:30am 8.7 5.0 7.9 95 0.4 SW 17 32 9 17 1012.2 1012.4 2.6
15/03:00am 8.2 5.2 7.6 96 0.3 WSW 13 19 7 10 1012.5 1012.6 2.6
15/02:30am 8.4 5.4 7.8 96 0.3 SW 13 20 7 11 1012.6 1012.7 2.6
15/02:00am 8.0 5.0 7.9 99 0.0 WSW 13 22 7 12 1012.8 1012.9 2.4
15/01:31am 7.4 5.0 7.0 97 0.2 W 9 13 5 7 1012.9 1013.0 2.4
15/01:30am 7.3 4.9 6.9 97 0.2 W 9 13 5 7 1012.9 1013.0 2.4
15/01:12am 8.4 5.9 8.0 97 0.2 W 11 13 6 7 1013.2 1013.3 2.0
15/01:00am 8.6 5.7 8.0 96 0.3 WSW 13 19 7 10 1013.3 1013.4 1.2
15/12:30am 8.6 6.8 7.8 95 0.4 S 7 15 4 8 1013.4 1013.5 1.0
15/12:00am 8.6 5.7 8.2 97 0.2 WSW 13 20 7 11 1013.8 1013.9 0.8
 
Date/Time
EST
Temp
°C
App
Temp
°C
Dew
Point
°C
Rel
Hum
%
Delta-T
°C
Wind Press
QNH
hPa
Press
MSL
hPa
Rain since
9am
mm
Dir  Spd
km/h
Gust
km/h
Spd
kts
Gust
kts
14/11:30pm 8.5 5.5 7.6 94 0.4 SW 13 20 7 11 1014.2 1014.3 0.8
14/11:00pm 9.2 5.8 9.1 99 0.0 SW 17 24 9 13 1014.3 1014.4 0.8
14/10:30pm 7.5 4.4 7.4 99 0.0 WSW 13 19 7 10 1014.5 1014.6 0.8
14/10:00pm 6.6 3.7 6.5 99 0.0 WSW 11 15 6 8 1014.6 1014.7 0.8
14/09:30pm 5.5 2.8 5.4 99 0.0 WSW 9 13 5 7 1014.9 1015.0 0.8
14/09:00pm 5.7 3.0 5.6 99 0.0 W 9 9 5 5 1015.0 1015.1 0.6
14/08:30pm 5.9 3.2 5.8 99 0.0 WSW 9 11 5 6 1015.3 1015.4 0.6

Other formats

Comma delimited format used in spreadsheet applications
http://www.bom.gov.au/fwo/IDV60801/IDV60801.94828.axf

JavaScript Object Notation format (JSON) in row-major order
http://www.bom.gov.au/fwo/IDV60801/IDV60801.94828.json

Data quality

Most of these data are generated automatically and are frequently updated. Quality checks on data are not normally performed. It is possible for incorrect values to appear. Refer to information at About Latest Weather Observations and please check the disclaimer before using these data.